createdAt,value
2022-11-18T00:01:54.625Z,97252.38
2022-11-18T00:04:40.913Z,97246.34
2022-11-18T00:07:27.285Z,97252.44
2022-11-18T00:10:13.884Z,97242.91
2022-11-18T00:13:19.072Z,97233.38
2022-11-18T00:16:11.238Z,97178.44
2022-11-18T00:18:57.695Z,97240.50
2022-11-18T00:21:44.399Z,97244.66
2022-11-18T00:24:31.592Z,97243.59
2022-11-18T00:27:18.166Z,97252.34
2022-11-18T00:30:04.995Z,97248.88
2022-11-18T00:32:51.228Z,97259.22
2022-11-18T00:35:38.106Z,97258.16
2022-11-18T00:38:25.487Z,97262.13
2022-11-18T00:41:14.580Z,97251.00
2022-11-18T00:44:05.061Z,97257.81
2022-11-18T00:46:55.076Z,97263.06
2022-11-18T00:49:41.545Z,97262.91
2022-11-18T00:52:28.239Z,97242.88
2022-11-18T00:55:14.768Z,97253.81
2022-11-18T00:58:01.615Z,97253.06
2022-11-18T01:00:51.994Z,97262.97
2022-11-18T01:03:38.715Z,97264.00
2022-11-18T01:06:25.093Z,97261.47
2022-11-18T01:09:12.166Z,97268.38
2022-11-18T01:12:17.471Z,97250.50
2022-11-18T01:15:04.450Z,97253.91
2022-11-18T01:17:51.050Z,97256.38
2022-11-18T01:20:38.333Z,97263.16
2022-11-18T01:23:24.793Z,97254.59
2022-11-18T01:26:13.496Z,97270.81
2022-11-18T01:29:00.230Z,97258.16
2022-11-18T01:32:09.238Z,97264.97
2022-11-18T01:34:53.096Z,97267.53
2022-11-18T01:37:39.993Z,97264.16
2022-11-18T01:40:27.614Z,97273.72
2022-11-18T01:43:17.954Z,97268.66
2022-11-18T01:46:04.482Z,97273.78
2022-11-18T01:48:56.013Z,97261.19
2022-11-18T01:51:48.872Z,97290.16
2022-11-18T01:54:41.087Z,97255.44
2022-11-18T01:57:30.567Z,97285.84
2022-11-18T02:00:17.936Z,97289.66
2022-11-18T02:03:04.575Z,97297.25
2022-11-18T02:05:53.945Z,97302.66
2022-11-18T02:08:41.783Z,97301.75
2022-11-18T02:11:46.639Z,97308.63
2022-11-18T02:14:37.262Z,97322.84
2022-11-18T02:17:37.404Z,97327.13
2022-11-18T02:20:39.461Z,97336.81
2022-11-18T02:23:59.642Z,97343.75
2022-11-18T02:27:33.283Z,97347.97
2022-11-18T02:30:21.567Z,97348.34
2022-11-18T02:33:24.741Z,97362.06
2022-11-18T02:36:20.756Z,97362.06
2022-11-18T02:39:20.110Z,97362.84
2022-11-18T02:42:10.580Z,97368.78
2022-11-18T02:45:03.422Z,97358.63
2022-11-18T02:47:52.134Z,97370.34
2022-11-18T02:50:40.983Z,97374.72
2022-11-18T02:53:30.751Z,97233.66
2022-11-18T02:56:19.922Z,97353.44
2022-11-18T02:59:06.527Z,97367.13
2022-11-18T03:01:53.184Z,97382.56
2022-11-18T03:04:39.807Z,97384.25
2022-11-18T03:07:32.762Z,97399.63
2022-11-18T03:10:21.839Z,97401.25
2022-11-18T03:13:15.065Z,97400.50
2022-11-18T03:16:09.412Z,97397.44
2022-11-18T03:19:25.011Z,97400.66
2022-11-18T03:22:24.477Z,97392.25
2022-11-18T03:25:20.353Z,97388.78
2022-11-18T03:28:15.158Z,97414.44
2022-11-18T03:31:32.186Z,97419.75
2022-11-18T03:34:36.834Z,97388.41
2022-11-18T03:37:26.418Z,97413.69
2022-11-18T03:40:20.111Z,97405.25
2022-11-18T03:43:13.188Z,97429.03
2022-11-18T03:46:22.158Z,97418.91
2022-11-18T03:49:14.588Z,97412.19
2022-11-18T03:52:14.439Z,97442.75
2022-11-18T03:55:05.807Z,97435.06
2022-11-18T03:58:07.213Z,97448.91
2022-11-18T04:01:01.333Z,97452.22
2022-11-18T04:03:48.303Z,97444.56
2022-11-18T04:06:40.845Z,97448.00
2022-11-18T04:09:32.564Z,97450.63
2022-11-18T04:12:21.162Z,97449.88
2022-11-18T04:15:08.216Z,97451.66
2022-11-18T04:17:54.856Z,97442.28
2022-11-18T04:20:41.621Z,97445.69
2022-11-18T04:23:28.265Z,97438.97
2022-11-18T04:26:17.764Z,97444.13
2022-11-18T04:29:04.617Z,97445.13
2022-11-18T04:31:51.610Z,97446.94
2022-11-18T04:34:37.991Z,97447.78
2022-11-18T04:37:25.559Z,97451.16
2022-11-18T04:40:12.898Z,97448.78
2022-11-18T04:42:59.563Z,97462.47
2022-11-18T04:45:46.222Z,97461.63
2022-11-18T04:48:32.854Z,97458.19
2022-11-18T04:51:19.531Z,97468.44
2022-11-18T04:54:06.556Z,97466.63
2022-11-18T04:56:53.943Z,97471.00
2022-11-18T04:59:40.931Z,97455.59
2022-11-18T05:02:27.387Z,97469.19
2022-11-18T05:05:14.018Z,97462.44
2022-11-18T05:08:00.613Z,97485.41
2022-11-18T05:10:46.863Z,97476.88
2022-11-18T05:13:33.177Z,97489.69
2022-11-18T05:16:20.097Z,97487.19
2022-11-18T05:19:06.829Z,97487.06
2022-11-18T05:21:54.043Z,97483.63
2022-11-18T05:24:40.795Z,97489.66
2022-11-18T05:27:27.312Z,97491.41
2022-11-18T05:30:14.216Z,97488.75
2022-11-18T05:33:00.679Z,97496.50
2022-11-18T05:35:49.985Z,97487.88
2022-11-18T05:38:41.217Z,97498.09
2022-11-18T05:41:46.487Z,97506.69
2022-11-18T05:44:32.877Z,97499.88
2022-11-18T05:47:19.493Z,97509.38
2022-11-18T05:50:06.664Z,97517.09
2022-11-18T05:52:53.193Z,97515.41
2022-11-18T05:55:52.009Z,97520.47
2022-11-18T05:58:38.357Z,97518.78
2022-11-18T06:01:39.595Z,97532.63
2022-11-18T06:04:40.768Z,97535.22
2022-11-18T06:07:35.508Z,97531.84
2022-11-18T06:10:29.562Z,97527.59
2022-11-18T06:13:21.951Z,97542.94
2022-11-18T06:16:08.797Z,97533.59
2022-11-18T06:18:55.700Z,97527.72
2022-11-18T06:21:43.179Z,97554.97
2022-11-18T06:24:29.622Z,97542.19
2022-11-18T06:27:16.470Z,97559.25
2022-11-18T06:30:03.674Z,97560.13
2022-11-18T06:32:50.375Z,97562.66
2022-11-18T06:35:36.726Z,97533.66
2022-11-18T06:38:26.531Z,97572.06
2022-11-18T06:41:13.193Z,97574.59
2022-11-18T06:44:01.031Z,97574.56
2022-11-18T06:46:56.423Z,97584.91
2022-11-18T06:49:42.824Z,97591.69
2022-11-18T06:52:29.339Z,97592.69
2022-11-18T06:55:17.307Z,97596.94
2022-11-18T06:58:06.286Z,97605.53
2022-11-18T07:00:53.115Z,97605.53
2022-11-18T07:03:41.230Z,97612.41
2022-11-18T07:06:30.547Z,97614.91
2022-11-18T07:09:17.362Z,97614.00
2022-11-18T07:12:04.757Z,97613.28
2022-11-18T07:14:51.185Z,97629.41
2022-11-18T07:17:37.689Z,97620.91
2022-11-18T07:20:24.464Z,97634.53
2022-11-18T07:23:11.036Z,97649.03
2022-11-18T07:25:57.478Z,97649.03
2022-11-18T07:28:48.796Z,97654.13
2022-11-18T07:31:38.962Z,97638.63
2022-11-18T07:34:25.436Z,97654.06
2022-11-18T07:37:12.073Z,97661.63
2022-11-18T07:39:59.907Z,97665.84
2022-11-18T07:42:46.811Z,97664.13
2022-11-18T07:45:42.772Z,97674.47
2022-11-18T07:48:29.093Z,97668.41
2022-11-18T07:51:18.313Z,97673.53
2022-11-18T07:54:10.139Z,97676.25
2022-11-18T07:56:58.799Z,97680.34
2022-11-18T07:59:45.426Z,97682.91
2022-11-18T08:02:32.163Z,97689.66
2022-11-18T08:05:20.284Z,97700.03
2022-11-18T08:08:06.966Z,97687.16
2022-11-18T08:10:57.906Z,97710.28
2022-11-18T08:13:44.758Z,97706.94
2022-11-18T08:16:31.330Z,97705.13
2022-11-18T08:19:18.183Z,97707.63
2022-11-18T08:22:04.580Z,97706.72
2022-11-18T08:24:50.973Z,97701.56
2022-11-18T08:27:37.645Z,97704.03
2022-11-18T08:30:49.566Z,97718.59
2022-11-18T08:33:36.822Z,97723.72
2022-11-18T08:36:26.332Z,97704.91
2022-11-18T08:39:12.832Z,97716.72
2022-11-18T08:41:59.215Z,97725.06
2022-11-18T08:44:45.642Z,97715.63
2022-11-18T08:47:32.574Z,97724.16
2022-11-18T08:50:19.241Z,97726.69
2022-11-18T08:53:06.020Z,97729.13
2022-11-18T08:55:59.793Z,97736.00
2022-11-18T08:58:46.502Z,97734.13
2022-11-18T09:01:33.275Z,97735.06
2022-11-18T09:04:19.990Z,97741.06
2022-11-18T09:07:06.591Z,97736.88
2022-11-18T09:09:53.271Z,97745.53
2022-11-18T09:12:39.553Z,97755.66
2022-11-18T09:15:26.785Z,97747.03
2022-11-18T09:18:13.705Z,97750.53
2022-11-18T09:21:02.667Z,97750.69
2022-11-18T09:23:49.013Z,97748.81
2022-11-18T09:26:35.665Z,97753.16
2022-11-18T09:29:26.301Z,97748.97
2022-11-18T09:32:13.602Z,97751.47
2022-11-18T09:35:00.104Z,97761.75
2022-11-18T09:37:47.699Z,97765.25
2022-11-18T09:40:42.595Z,97773.97
2022-11-18T09:44:06.786Z,97771.31
2022-11-18T09:46:53.422Z,97775.72
2022-11-18T09:49:46.876Z,97772.34
2022-11-18T09:52:56.546Z,97781.59
2022-11-18T09:55:42.977Z,97762.72
2022-11-18T09:58:38.627Z,97782.22
2022-11-18T10:01:27.707Z,97759.81
2022-11-18T10:04:20.388Z,97784.44
2022-11-18T10:07:15.597Z,97783.44
2022-11-18T10:10:10.498Z,97781.69
2022-11-18T10:13:09.913Z,97789.31
2022-11-18T10:16:33.786Z,97799.41
2022-11-18T10:19:25.684Z,97796.63
2022-11-18T10:22:34.085Z,97797.44
2022-11-18T10:25:22.485Z,97799.00
2022-11-18T10:28:22.564Z,97797.97
2022-11-18T10:31:11.858Z,97798.06
2022-11-18T10:34:00.505Z,97804.13
2022-11-18T10:37:00.835Z,97806.66
2022-11-18T10:39:52.496Z,97798.91
2022-11-18T10:42:46.418Z,97813.63
2022-11-18T10:45:33.249Z,97809.38
2022-11-18T10:48:19.548Z,97809.44
2022-11-18T10:51:22.297Z,97806.91
2022-11-18T10:54:27.710Z,97807.75
2022-11-18T10:57:25.244Z,97804.31
2022-11-18T11:00:35.599Z,97819.81
2022-11-18T11:03:24.287Z,97826.59
2022-11-18T11:06:23.895Z,97827.56
2022-11-18T11:09:13.267Z,97822.34
2022-11-18T11:12:13.226Z,97817.91
2022-11-18T11:15:04.388Z,97815.94
2022-11-18T11:18:23.223Z,97802.25
2022-11-18T11:21:12.110Z,97824.63
2022-11-18T11:23:58.833Z,97828.44
2022-11-18T11:30:25.195Z,97821.63
2022-11-18T11:33:28.074Z,97831.25
2022-11-18T11:36:28.102Z,97834.56
2022-11-18T11:39:38.226Z,97828.59
2022-11-18T11:42:52.089Z,97829.28
2022-11-18T11:46:20.427Z,97825.06
2022-11-18T11:49:29.739Z,97833.09
2022-11-18T11:52:28.229Z,97832.19
2022-11-18T11:55:47.816Z,97841.31
2022-11-18T11:59:06.103Z,97843.00
2022-11-18T12:02:15.890Z,97844.75
2022-11-18T12:05:25.315Z,97851.66
2022-11-18T12:08:27.157Z,97855.63
2022-11-18T12:11:29.991Z,97859.72
2022-11-18T12:14:42.661Z,97856.16
2022-11-18T12:17:40.101Z,97849.91
2022-11-18T12:20:48.119Z,97838.75
2022-11-18T12:23:34.767Z,97860.16
2022-11-18T12:26:39.473Z,97846.72
2022-11-18T12:29:40.666Z,97862.19
2022-11-18T12:32:42.328Z,97865.72
2022-11-18T12:35:37.611Z,97857.91
2022-11-18T12:38:31.883Z,97860.53
2022-11-18T12:42:02.587Z,97863.19
2022-11-18T12:44:52.556Z,97855.78
2022-11-18T12:47:42.323Z,97871.59
2022-11-18T12:50:49.311Z,97869.56
2022-11-18T12:53:40.358Z,97870.31
2022-11-18T12:56:31.737Z,97866.84
2022-11-18T12:59:27.557Z,97864.84
2022-11-18T13:02:26.522Z,97867.13
2022-11-18T13:05:21.487Z,97870.41
2022-11-18T13:08:13.232Z,97871.00
2022-11-18T13:11:38.376Z,97869.19
2022-11-18T13:15:07.512Z,97867.13
2022-11-18T13:18:12.608Z,97863.53
2022-11-18T13:21:24.297Z,97850.41
2022-11-18T13:24:16.696Z,97869.75
2022-11-18T13:27:04.686Z,97870.63
2022-11-18T13:30:14.584Z,97866.16
2022-11-18T13:33:01.155Z,97878.59
2022-11-18T13:35:47.771Z,97876.31
2022-11-18T13:38:34.954Z,97873.81
2022-11-18T13:41:32.466Z,97872.72
2022-11-18T13:44:23.435Z,97878.94
2022-11-18T13:47:36.644Z,97869.78
2022-11-18T13:50:26.391Z,97889.00
2022-11-18T13:53:19.133Z,97874.53
2022-11-18T13:56:34.510Z,97877.41
2022-11-18T13:59:24.913Z,97878.50
2022-11-18T14:02:13.699Z,97881.25
2022-11-18T14:05:00.526Z,97882.34
2022-11-18T14:08:02.772Z,97882.56
2022-11-18T14:10:49.100Z,97901.56
2022-11-18T14:13:47.494Z,97899.81
2022-11-18T14:16:36.850Z,97897.13
2022-11-18T14:19:31.096Z,97891.91
2022-11-18T14:22:22.891Z,97903.09
2022-11-18T14:25:25.045Z,97907.44
2022-11-18T14:28:26.660Z,97904.78
2022-11-18T14:31:12.927Z,97910.78
2022-11-18T14:34:14.254Z,97900.38
2022-11-18T14:37:00.700Z,97910.66
2022-11-18T14:39:55.748Z,97895.22
2022-11-18T14:42:42.313Z,97911.38
2022-11-18T14:45:28.856Z,97895.22
2022-11-18T14:48:19.019Z,97919.22
2022-11-18T14:51:05.926Z,97917.34
2022-11-18T14:53:53.209Z,97913.91
2022-11-18T14:56:41.224Z,97926.03
2022-11-18T14:59:27.891Z,97927.78
2022-11-18T15:02:17.054Z,97931.34
2022-11-18T15:05:03.553Z,97933.16
2022-11-18T15:07:55.282Z,97932.31
2022-11-18T15:11:02.994Z,97942.75
2022-11-18T15:17:53.634Z,97947.38
2022-11-18T15:21:00.887Z,97949.19
2022-11-18T15:23:54.861Z,97940.72
2022-11-18T15:26:45.365Z,97942.53
2022-11-18T15:29:38.088Z,97944.38
2022-11-18T15:32:48.077Z,97943.69
2022-11-18T15:35:42.005Z,97948.16
2022-11-18T15:38:37.329Z,97943.94
2022-11-18T15:41:29.647Z,97904.84
2022-11-18T15:44:17.284Z,97963.84
2022-11-18T15:47:04.353Z,97963.97
2022-11-18T15:49:53.338Z,97947.75
2022-11-18T15:52:42.942Z,97958.94
2022-11-18T15:55:37.504Z,97961.47
2022-11-18T15:58:29.243Z,97940.13
2022-11-18T16:01:24.169Z,97944.38
2022-11-18T16:04:15.022Z,97955.53
2022-11-18T16:07:03.483Z,97953.81
2022-11-18T16:10:08.946Z,97949.63
2022-11-18T16:12:55.795Z,97953.91
2022-11-18T16:15:48.367Z,97959.16
2022-11-18T16:18:40.580Z,97959.19
2022-11-18T16:21:28.773Z,97962.59
2022-11-18T16:24:24.535Z,97963.50
2022-11-18T16:27:11.034Z,97962.72
2022-11-18T16:29:57.701Z,97971.31
2022-11-18T16:32:44.355Z,97960.25
2022-11-18T16:35:31.237Z,97950.91
2022-11-18T16:38:18.730Z,97970.59
2022-11-18T16:41:25.434Z,97980.13
2022-11-18T16:44:14.165Z,97987.00
2022-11-18T16:47:00.756Z,97989.69
2022-11-18T16:49:47.334Z,97968.38
2022-11-18T16:52:34.011Z,97990.63
2022-11-18T16:55:23.370Z,97982.97
2022-11-18T16:58:11.756Z,98007.84
2022-11-18T17:01:18.556Z,98001.91
2022-11-18T17:04:04.456Z,98010.53
2022-11-18T17:06:51.097Z,97999.47
2022-11-18T17:09:37.648Z,98020.03
2022-11-18T17:12:23.783Z,98019.19
2022-11-18T17:15:10.756Z,98016.66
2022-11-18T17:17:57.021Z,98024.38
2022-11-18T17:20:43.383Z,98030.38
2022-11-18T17:23:30.023Z,98024.34
2022-11-18T17:26:19.015Z,98036.34
2022-11-18T17:29:08.092Z,98038.06
2022-11-18T17:31:55.414Z,98034.59
2022-11-18T17:34:42.671Z,98032.03
2022-11-18T17:37:30.200Z,98024.34
2022-11-18T17:40:16.686Z,98035.44
2022-11-18T17:43:03.869Z,98039.75
2022-11-18T17:45:57.311Z,98047.44
2022-11-18T17:48:43.703Z,98041.47
2022-11-18T17:51:30.866Z,98027.81
2022-11-18T17:54:18.313Z,98038.09
2022-11-18T17:57:04.975Z,98050.06
2022-11-18T17:59:51.688Z,98051.78
2022-11-18T18:02:37.926Z,98051.78
2022-11-18T18:05:24.966Z,98049.22
2022-11-18T18:08:11.883Z,98045.81
2022-11-18T18:11:06.863Z,98051.75
2022-11-18T18:14:12.275Z,98059.44
2022-11-18T18:17:00.171Z,98041.44
2022-11-18T18:19:47.073Z,98053.41
2022-11-18T18:22:33.364Z,98059.41
2022-11-18T18:25:23.623Z,98057.69
2022-11-18T18:28:09.858Z,98072.25
2022-11-18T18:31:08.540Z,98066.22
2022-11-18T18:33:55.485Z,98068.84
2022-11-18T18:36:41.689Z,98082.56
2022-11-18T18:39:28.342Z,98086.84
2022-11-18T18:42:15.079Z,98085.97
2022-11-18T18:45:21.020Z,98087.69
2022-11-18T18:48:07.553Z,98083.44
2022-11-18T18:50:54.091Z,98069.75
2022-11-18T18:53:41.601Z,98096.28
2022-11-18T18:56:28.625Z,98087.69
2022-11-18T18:59:15.236Z,98080.84
2022-11-18T19:02:01.720Z,98085.97
2022-11-18T19:04:48.372Z,98091.97
2022-11-18T19:07:35.145Z,98092.84
2022-11-18T19:10:21.714Z,98091.94
2022-11-18T19:13:08.317Z,98098.81
2022-11-18T19:15:54.931Z,98100.50
2022-11-18T19:18:41.714Z,98099.63
2022-11-18T19:21:28.515Z,98100.41
2022-11-18T19:24:35.174Z,98105.56
2022-11-18T19:27:21.765Z,98110.63
2022-11-18T19:30:10.973Z,98098.63
2022-11-18T19:32:58.803Z,98099.50
2022-11-18T19:35:45.641Z,98095.22
2022-11-18T19:38:34.674Z,98098.66
2022-11-18T19:41:21.205Z,98106.28
2022-11-18T19:44:07.889Z,98113.13
2022-11-18T19:46:54.444Z,98111.41
2022-11-18T19:49:41.376Z,98113.13
2022-11-18T19:52:28.608Z,98115.72
2022-11-18T19:55:15.163Z,98117.47
2022-11-18T19:58:01.820Z,98115.72
2022-11-18T20:00:48.461Z,98098.56
2022-11-18T20:03:35.030Z,98117.47
2022-11-18T20:06:22.737Z,98114.91
2022-11-18T20:09:10.957Z,98107.28
2022-11-18T20:11:57.570Z,98125.22
2022-11-18T20:14:44.260Z,98119.19
2022-11-18T20:17:30.440Z,98114.03
2022-11-18T20:20:17.079Z,98093.41
2022-11-18T20:23:05.087Z,98119.16
2022-11-18T20:25:51.473Z,98114.03
2022-11-18T20:28:41.066Z,98112.31
2022-11-18T20:31:28.622Z,98115.78
2022-11-18T20:34:15.065Z,98112.34
2022-11-18T20:37:01.856Z,98117.47
2022-11-18T20:39:48.064Z,98105.47
2022-11-18T20:42:54.309Z,98110.63
2022-11-18T20:45:43.415Z,98118.38
2022-11-18T20:48:32.192Z,98098.72
2022-11-18T20:51:24.803Z,98123.63
2022-11-18T20:54:11.775Z,98117.63
2022-11-18T20:56:58.403Z,98122.81
2022-11-18T20:59:45.087Z,98127.13
2022-11-18T21:02:31.466Z,98122.84
2022-11-18T21:05:21.443Z,98133.16
2022-11-18T21:08:08.928Z,98143.44
2022-11-18T21:10:55.260Z,98135.72
2022-11-18T21:14:00.720Z,98134.84
2022-11-18T21:45:28.303Z,98150.31
2022-11-18T21:48:14.503Z,98165.72
2022-11-18T21:51:02.104Z,98136.59
2022-11-18T21:53:48.594Z,98167.44
2022-11-18T21:56:34.887Z,98158.84
2022-11-18T21:59:22.692Z,98134.84
2022-11-18T22:02:13.457Z,98160.56
2022-11-18T22:05:06.380Z,98142.56
2022-11-18T22:07:52.928Z,98159.69
2022-11-18T22:10:45.358Z,98164.81
2022-11-18T22:13:32.378Z,98164.81
2022-11-18T22:16:20.925Z,98156.25
2022-11-18T22:19:08.456Z,98160.56
2022-11-18T22:21:54.898Z,98141.72
2022-11-18T22:24:41.171Z,98163.97
2022-11-18T22:27:27.383Z,98175.13
2022-11-18T22:30:13.784Z,98134.88
2022-11-18T22:33:00.328Z,98157.16
2022-11-18T22:35:46.525Z,98180.28
2022-11-18T22:38:32.970Z,98191.44
2022-11-18T22:41:40.347Z,98194.00
2022-11-18T22:44:26.979Z,98190.56
2022-11-18T22:47:13.598Z,98157.16
2022-11-18T22:49:59.832Z,98179.44
2022-11-18T22:52:46.038Z,98188.00
2022-11-18T22:55:32.212Z,98184.56
2022-11-18T22:58:18.784Z,98170.88
2022-11-18T23:01:08.005Z,98191.44
2022-11-18T23:03:54.182Z,98177.72
2022-11-18T23:06:40.472Z,98177.69
2022-11-18T23:09:26.961Z,98183.69
2022-11-18T23:12:31.785Z,98169.13
2022-11-18T23:15:18.105Z,98158.00
2022-11-18T23:18:08.765Z,98194.00
2022-11-18T23:21:02.449Z,98191.44
2022-11-18T23:23:48.609Z,98167.44
2022-11-18T23:26:34.894Z,98189.72
2022-11-18T23:29:21.955Z,98182.84
2022-11-18T23:32:08.789Z,98148.56
2022-11-18T23:34:55.099Z,98200.88
2022-11-18T23:37:41.345Z,98188.84
2022-11-18T23:40:29.045Z,98186.28
2022-11-18T23:43:15.246Z,98184.56
2022-11-18T23:46:02.356Z,98177.72
2022-11-18T23:48:48.613Z,98178.56
2022-11-18T23:51:34.816Z,98183.72
2022-11-18T23:54:20.996Z,98177.72
2022-11-18T23:57:07.486Z,98129.72
2022-11-18T23:59:53.572Z,98170.84
